sensor_id;sensor_type;location;lat;lon;timestamp;P1;durP1;ratioP1;P2;durP2;ratioP2
72674;SDS011;60752;53.962;9.614;2022-11-15T00:04:37;34.43;;;13.93;;
72674;SDS011;60752;53.962;9.614;2022-11-15T00:09:39;31.30;;;12.93;;
72674;SDS011;60752;53.962;9.614;2022-11-15T00:14:40;30.87;;;14.57;;
72674;SDS011;60752;53.962;9.614;2022-11-15T00:19:40;33.07;;;12.50;;
72674;SDS011;60752;53.962;9.614;2022-11-15T00:24:42;30.27;;;12.80;;
72674;SDS011;60752;53.962;9.614;2022-11-15T00:29:42;30.00;;;12.75;;
72674;SDS011;60752;53.962;9.614;2022-11-15T00:34:42;35.73;;;12.80;;
72674;SDS011;60752;53.962;9.614;2022-11-15T00:39:44;30.10;;;12.40;;
72674;SDS011;60752;53.962;9.614;2022-11-15T00:44:44;27.40;;;13.35;;
72674;SDS011;60752;53.962;9.614;2022-11-15T00:49:45;34.50;;;13.43;;
72674;SDS011;60752;53.962;9.614;2022-11-15T00:54:47;32.23;;;14.07;;
72674;SDS011;60752;53.962;9.614;2022-11-15T00:59:47;30.83;;;13.27;;
72674;SDS011;60752;53.962;9.614;2022-11-15T01:04:47;29.87;;;14.07;;
72674;SDS011;60752;53.962;9.614;2022-11-15T01:09:49;32.17;;;13.20;;
72674;SDS011;60752;53.962;9.614;2022-11-15T01:14:50;28.13;;;12.17;;
72674;SDS011;60752;53.962;9.614;2022-11-15T01:19:50;32.47;;;12.50;;
72674;SDS011;60752;53.962;9.614;2022-11-15T01:24:52;33.47;;;13.47;;
72674;SDS011;60752;53.962;9.614;2022-11-15T01:29:52;28.35;;;12.90;;
72674;SDS011;60752;53.962;9.614;2022-11-15T01:34:52;31.57;;;14.00;;
72674;SDS011;60752;53.962;9.614;2022-11-15T01:39:54;29.47;;;13.07;;
72674;SDS011;60752;53.962;9.614;2022-11-15T01:44:55;33.40;;;13.20;;
72674;SDS011;60752;53.962;9.614;2022-11-15T01:49:56;27.47;;;12.40;;
72674;SDS011;60752;53.962;9.614;2022-11-15T01:55:03;26.93;;;12.13;;
72674;SDS011;60752;53.962;9.614;2022-11-15T02:00:08;31.43;;;12.87;;
72674;SDS011;60752;53.962;9.614;2022-11-15T02:05:09;33.55;;;14.32;;
72674;SDS011;60752;53.962;9.614;2022-11-15T02:10:13;27.80;;;12.77;;
72674;SDS011;60752;53.962;9.614;2022-11-15T02:15:17;30.90;;;13.48;;
72674;SDS011;60752;53.962;9.614;2022-11-15T02:20:30;35.33;;;12.13;;
72674;SDS011;60752;53.962;9.614;2022-11-15T02:25:45;29.90;;;12.20;;
72674;SDS011;60752;53.962;9.614;2022-11-15T02:30:52;29.52;;;12.18;;
72674;SDS011;60752;53.962;9.614;2022-11-15T02:36:00;28.50;;;12.17;;
72674;SDS011;60752;53.962;9.614;2022-11-15T02:41:02;31.13;;;13.87;;
72674;SDS011;60752;53.962;9.614;2022-11-15T02:46:09;29.70;;;13.82;;
72674;SDS011;60752;53.962;9.614;2022-11-15T02:51:14;32.60;;;13.50;;
72674;SDS011;60752;53.962;9.614;2022-11-15T02:56:16;27.43;;;12.30;;
72674;SDS011;60752;53.962;9.614;2022-11-15T03:01:21;27.80;;;12.17;;
72674;SDS011;60752;53.962;9.614;2022-11-15T03:06:30;30.35;;;12.20;;
72674;SDS011;60752;53.962;9.614;2022-11-15T03:11:40;27.38;;;11.90;;
72674;SDS011;60752;53.962;9.614;2022-11-15T03:16:47;29.50;;;12.53;;
72674;SDS011;60752;53.962;9.614;2022-11-15T03:21:50;28.33;;;12.03;;
72674;SDS011;60752;53.962;9.614;2022-11-15T03:26:52;28.15;;;12.02;;
72674;SDS011;60752;53.962;9.614;2022-11-15T03:31:58;27.42;;;12.18;;
72674;SDS011;60752;53.962;9.614;2022-11-15T03:37:01;31.37;;;13.07;;
72674;SDS011;60752;53.962;9.614;2022-11-15T03:42:06;31.30;;;11.50;;
72674;SDS011;60752;53.962;9.614;2022-11-15T03:47:13;33.67;;;11.43;;
72674;SDS011;60752;53.962;9.614;2022-11-15T03:52:19;29.37;;;11.47;;
72674;SDS011;60752;53.962;9.614;2022-11-15T03:57:21;28.33;;;11.82;;
72674;SDS011;60752;53.962;9.614;2022-11-15T04:02:22;26.43;;;11.60;;
72674;SDS011;60752;53.962;9.614;2022-11-15T04:07:23;29.63;;;12.18;;
72674;SDS011;60752;53.962;9.614;2022-11-15T04:12:23;25.10;;;11.00;;
72674;SDS011;60752;53.962;9.614;2022-11-15T04:17:25;24.83;;;12.23;;
72674;SDS011;60752;53.962;9.614;2022-11-15T04:22:26;32.40;;;12.88;;
72674;SDS011;60752;53.962;9.614;2022-11-15T04:27:26;23.97;;;10.47;;
72674;SDS011;60752;53.962;9.614;2022-11-15T04:32:28;24.57;;;10.53;;
72674;SDS011;60752;53.962;9.614;2022-11-15T04:37:28;21.63;;;10.55;;
72674;SDS011;60752;53.962;9.614;2022-11-15T04:42:29;29.00;;;11.60;;
72674;SDS011;60752;53.962;9.614;2022-11-15T04:47:31;27.67;;;11.63;;
72674;SDS011;60752;53.962;9.614;2022-11-15T04:52:32;25.90;;;11.90;;
72674;SDS011;60752;53.962;9.614;2022-11-15T04:57:32;28.20;;;11.27;;
72674;SDS011;60752;53.962;9.614;2022-11-15T05:02:34;26.00;;;11.00;;
72674;SDS011;60752;53.962;9.614;2022-11-15T05:07:34;24.10;;;9.93;;
72674;SDS011;60752;53.962;9.614;2022-11-15T05:12:35;28.67;;;11.27;;
72674;SDS011;60752;53.962;9.614;2022-11-15T05:17:37;24.98;;;10.85;;
72674;SDS011;60752;53.962;9.614;2022-11-15T05:22:37;23.23;;;10.37;;
72674;SDS011;60752;53.962;9.614;2022-11-15T05:27:38;24.95;;;11.27;;
72674;SDS011;60752;53.962;9.614;2022-11-15T05:32:40;22.67;;;10.30;;
72674;SDS011;60752;53.962;9.614;2022-11-15T05:37:40;27.90;;;11.17;;
72674;SDS011;60752;53.962;9.614;2022-11-15T05:42:41;23.77;;;11.17;;
72674;SDS011;60752;53.962;9.614;2022-11-15T05:47:43;29.00;;;13.23;;
72674;SDS011;60752;53.962;9.614;2022-11-15T05:52:44;28.75;;;11.50;;
72674;SDS011;60752;53.962;9.614;2022-11-15T05:57:45;26.03;;;12.13;;
72674;SDS011;60752;53.962;9.614;2022-11-15T06:02:47;28.83;;;12.07;;
72674;SDS011;60752;53.962;9.614;2022-11-15T06:07:48;23.60;;;11.18;;
72674;SDS011;60752;53.962;9.614;2022-11-15T06:12:55;25.40;;;11.80;;
72674;SDS011;60752;53.962;9.614;2022-11-15T06:17:58;25.80;;;12.48;;
72674;SDS011;60752;53.962;9.614;2022-11-15T06:22:58;24.40;;;11.05;;
72674;SDS011;60752;53.962;9.614;2022-11-15T06:27:59;20.97;;;10.43;;
72674;SDS011;60752;53.962;9.614;2022-11-15T06:33:01;22.93;;;10.33;;
72674;SDS011;60752;53.962;9.614;2022-11-15T06:38:03;24.50;;;10.27;;
72674;SDS011;60752;53.962;9.614;2022-11-15T06:43:05;29.20;;;11.37;;
72674;SDS011;60752;53.962;9.614;2022-11-15T06:48:07;22.17;;;10.43;;
72674;SDS011;60752;53.962;9.614;2022-11-15T06:53:07;27.27;;;10.65;;
72674;SDS011;60752;53.962;9.614;2022-11-15T06:58:08;25.40;;;10.33;;
72674;SDS011;60752;53.962;9.614;2022-11-15T07:03:10;25.30;;;10.23;;
72674;SDS011;60752;53.962;9.614;2022-11-15T07:08:10;22.08;;;10.45;;
72674;SDS011;60752;53.962;9.614;2022-11-15T07:13:10;25.13;;;10.77;;
72674;SDS011;60752;53.962;9.614;2022-11-15T07:18:12;26.10;;;11.10;;
72674;SDS011;60752;53.962;9.614;2022-11-15T07:23:13;25.10;;;10.80;;
72674;SDS011;60752;53.962;9.614;2022-11-15T07:28:13;23.87;;;10.53;;
72674;SDS011;60752;53.962;9.614;2022-11-15T07:33:15;21.17;;;10.33;;
72674;SDS011;60752;53.962;9.614;2022-11-15T07:38:16;25.08;;;10.77;;
72674;SDS011;60752;53.962;9.614;2022-11-15T07:43:17;26.33;;;11.70;;
72674;SDS011;60752;53.962;9.614;2022-11-15T07:48:19;23.03;;;10.80;;
72674;SDS011;60752;53.962;9.614;2022-11-15T07:53:19;21.60;;;10.50;;
72674;SDS011;60752;53.962;9.614;2022-11-15T07:58:19;27.03;;;11.73;;
72674;SDS011;60752;53.962;9.614;2022-11-15T08:03:21;21.83;;;10.33;;
72674;SDS011;60752;53.962;9.614;2022-11-15T08:08:21;23.20;;;10.97;;
72674;SDS011;60752;53.962;9.614;2022-11-15T08:13:22;29.20;;;11.83;;
72674;SDS011;60752;53.962;9.614;2022-11-15T08:18:24;25.20;;;9.83;;
72674;SDS011;60752;53.962;9.614;2022-11-15T08:23:27;20.77;;;10.40;;
72674;SDS011;60752;53.962;9.614;2022-11-15T08:28:27;23.65;;;10.45;;
72674;SDS011;60752;53.962;9.614;2022-11-15T08:33:30;22.77;;;10.17;;
72674;SDS011;60752;53.962;9.614;2022-11-15T08:38:31;17.63;;;8.88;;
72674;SDS011;60752;53.962;9.614;2022-11-15T08:43:31;22.83;;;10.37;;
72674;SDS011;60752;53.962;9.614;2022-11-15T08:48:33;24.20;;;10.37;;
72674;SDS011;60752;53.962;9.614;2022-11-15T08:53:33;24.70;;;10.80;;
72674;SDS011;60752;53.962;9.614;2022-11-15T08:58:34;23.63;;;10.63;;
72674;SDS011;60752;53.962;9.614;2022-11-15T09:03:36;22.73;;;10.52;;
72674;SDS011;60752;53.962;9.614;2022-11-15T09:08:37;25.27;;;9.77;;
72674;SDS011;60752;53.962;9.614;2022-11-15T09:13:37;23.05;;;10.73;;
72674;SDS011;60752;53.962;9.614;2022-11-15T09:18:39;27.03;;;9.97;;
72674;SDS011;60752;53.962;9.614;2022-11-15T09:23:39;27.58;;;11.23;;
72674;SDS011;60752;53.962;9.614;2022-11-15T09:28:40;23.60;;;11.23;;
72674;SDS011;60752;53.962;9.614;2022-11-15T09:33:44;21.83;;;9.53;;
72674;SDS011;60752;53.962;9.614;2022-11-15T09:38:44;22.67;;;10.50;;
72674;SDS011;60752;53.962;9.614;2022-11-15T09:43:46;21.57;;;10.83;;
72674;SDS011;60752;53.962;9.614;2022-11-15T09:48:54;23.13;;;10.63;;
72674;SDS011;60752;53.962;9.614;2022-11-15T09:54:02;24.60;;;10.18;;
72674;SDS011;60752;53.962;9.614;2022-11-15T09:59:11;24.30;;;11.03;;
72674;SDS011;60752;53.962;9.614;2022-11-15T10:04:19;20.58;;;10.23;;
72674;SDS011;60752;53.962;9.614;2022-11-15T10:09:23;20.95;;;9.93;;
72674;SDS011;60752;53.962;9.614;2022-11-15T10:14:26;20.63;;;10.67;;
72674;SDS011;60752;53.962;9.614;2022-11-15T10:19:33;23.50;;;10.93;;
72674;SDS011;60752;53.962;9.614;2022-11-15T10:24:38;20.95;;;10.00;;
72674;SDS011;60752;53.962;9.614;2022-11-15T10:29:45;20.33;;;9.85;;
72674;SDS011;60752;53.962;9.614;2022-11-15T10:34:48;23.53;;;9.73;;
72674;SDS011;60752;53.962;9.614;2022-11-15T10:39:56;20.98;;;10.50;;
72674;SDS011;60752;53.962;9.614;2022-11-15T10:45:04;22.63;;;9.65;;
72674;SDS011;60752;53.962;9.614;2022-11-15T10:50:28;19.47;;;9.37;;
72674;SDS011;60752;53.962;9.614;2022-11-15T10:55:30;22.58;;;9.02;;
72674;SDS011;60752;53.962;9.614;2022-11-15T11:00:34;18.40;;;9.60;;
72674;SDS011;60752;53.962;9.614;2022-11-15T11:05:38;22.23;;;9.60;;
72674;SDS011;60752;53.962;9.614;2022-11-15T11:10:40;19.17;;;9.10;;
72674;SDS011;60752;53.962;9.614;2022-11-15T11:15:55;19.80;;;9.35;;
72674;SDS011;60752;53.962;9.614;2022-11-15T11:21:08;22.90;;;10.20;;
72674;SDS011;60752;53.962;9.614;2022-11-15T11:26:15;20.57;;;9.43;;
72674;SDS011;60752;53.962;9.614;2022-11-15T11:31:29;18.92;;;9.43;;
72674;SDS011;60752;53.962;9.614;2022-11-15T11:36:42;20.25;;;9.70;;
72674;SDS011;60752;53.962;9.614;2022-11-15T11:41:53;19.33;;;9.47;;
72674;SDS011;60752;53.962;9.614;2022-11-15T11:47:19;16.70;;;8.73;;
72674;SDS011;60752;53.962;9.614;2022-11-15T11:52:25;16.20;;;8.55;;
72674;SDS011;60752;53.962;9.614;2022-11-15T11:57:33;18.80;;;8.97;;
72674;SDS011;60752;53.962;9.614;2022-11-15T12:02:39;21.07;;;9.37;;
72674;SDS011;60752;53.962;9.614;2022-11-15T12:07:44;18.48;;;9.77;;
72674;SDS011;60752;53.962;9.614;2022-11-15T12:12:49;16.88;;;8.68;;
72674;SDS011;60752;53.962;9.614;2022-11-15T12:17:54;16.63;;;8.93;;
72674;SDS011;60752;53.962;9.614;2022-11-15T12:22:59;16.95;;;8.23;;
72674;SDS011;60752;53.962;9.614;2022-11-15T12:28:06;18.27;;;8.15;;
72674;SDS011;60752;53.962;9.614;2022-11-15T12:33:29;18.70;;;7.80;;
72674;SDS011;60752;53.962;9.614;2022-11-15T12:43:56;14.75;;;8.35;;
72674;SDS011;60752;53.962;9.614;2022-11-15T12:48:57;17.47;;;8.23;;
72674;SDS011;60752;53.962;9.614;2022-11-15T12:54:00;15.83;;;8.03;;
72674;SDS011;60752;53.962;9.614;2022-11-15T12:59:48;20.40;;;9.18;;
72674;SDS011;60752;53.962;9.614;2022-11-15T13:04:50;17.90;;;8.52;;
72674;SDS011;60752;53.962;9.614;2022-11-15T13:09:53;17.67;;;8.40;;
72674;SDS011;60752;53.962;9.614;2022-11-15T13:14:55;17.02;;;8.15;;
72674;SDS011;60752;53.962;9.614;2022-11-15T13:19:58;15.38;;;7.40;;
72674;SDS011;60752;53.962;9.614;2022-11-15T13:25:02;16.20;;;8.33;;
72674;SDS011;60752;53.962;9.614;2022-11-15T13:30:03;14.13;;;7.22;;
72674;SDS011;60752;53.962;9.614;2022-11-15T13:35:17;16.92;;;7.85;;
72674;SDS011;60752;53.962;9.614;2022-11-15T13:40:24;15.40;;;8.07;;
72674;SDS011;60752;53.962;9.614;2022-11-15T13:45:26;14.80;;;7.90;;
72674;SDS011;60752;53.962;9.614;2022-11-15T13:50:27;15.80;;;8.20;;
72674;SDS011;60752;53.962;9.614;2022-11-15T13:55:33;19.55;;;8.35;;
72674;SDS011;60752;53.962;9.614;2022-11-15T14:00:35;18.38;;;8.20;;
72674;SDS011;60752;53.962;9.614;2022-11-15T14:05:37;14.23;;;7.73;;
72674;SDS011;60752;53.962;9.614;2022-11-15T14:10:39;16.88;;;8.10;;
72674;SDS011;60752;53.962;9.614;2022-11-15T14:15:39;17.57;;;7.90;;
72674;SDS011;60752;53.962;9.614;2022-11-15T14:20:40;18.13;;;8.30;;
72674;SDS011;60752;53.962;9.614;2022-11-15T14:25:51;14.67;;;7.67;;
72674;SDS011;60752;53.962;9.614;2022-11-15T14:30:53;17.00;;;7.80;;
72674;SDS011;60752;53.962;9.614;2022-11-15T14:35:58;14.45;;;7.80;;
72674;SDS011;60752;53.962;9.614;2022-11-15T14:41:04;15.73;;;7.40;;
72674;SDS011;60752;53.962;9.614;2022-11-15T14:46:05;23.42;;;11.20;;
72674;SDS011;60752;53.962;9.614;2022-11-15T14:51:09;17.17;;;7.57;;
72674;SDS011;60752;53.962;9.614;2022-11-15T14:56:13;15.15;;;7.75;;
72674;SDS011;60752;53.962;9.614;2022-11-15T15:01:16;17.40;;;7.63;;
72674;SDS011;60752;53.962;9.614;2022-11-15T15:06:21;15.15;;;7.18;;
72674;SDS011;60752;53.962;9.614;2022-11-15T15:11:23;16.67;;;7.23;;
72674;SDS011;60752;53.962;9.614;2022-11-15T15:16:25;14.70;;;8.27;;
72674;SDS011;60752;53.962;9.614;2022-11-15T15:21:26;13.30;;;6.57;;
72674;SDS011;60752;53.962;9.614;2022-11-15T15:26:29;14.20;;;7.50;;
72674;SDS011;60752;53.962;9.614;2022-11-15T15:31:29;13.37;;;7.30;;
72674;SDS011;60752;53.962;9.614;2022-11-15T15:36:29;15.83;;;7.20;;
72674;SDS011;60752;53.962;9.614;2022-11-15T15:41:31;17.50;;;6.80;;
72674;SDS011;60752;53.962;9.614;2022-11-15T15:46:31;16.23;;;8.10;;
72674;SDS011;60752;53.962;9.614;2022-11-15T15:51:34;17.33;;;7.57;;
72674;SDS011;60752;53.962;9.614;2022-11-15T15:56:35;16.07;;;7.53;;
72674;SDS011;60752;53.962;9.614;2022-11-15T16:01:36;14.35;;;7.57;;
72674;SDS011;60752;53.962;9.614;2022-11-15T16:06:37;14.70;;;7.40;;
72674;SDS011;60752;53.962;9.614;2022-11-15T16:11:39;15.20;;;7.20;;
72674;SDS011;60752;53.962;9.614;2022-11-15T16:16:40;18.13;;;8.40;;
72674;SDS011;60752;53.962;9.614;2022-11-15T16:21:40;16.67;;;8.07;;
72674;SDS011;60752;53.962;9.614;2022-11-15T16:26:42;16.47;;;7.43;;
72674;SDS011;60752;53.962;9.614;2022-11-15T16:31:45;12.50;;;7.30;;
72674;SDS011;60752;53.962;9.614;2022-11-15T16:36:46;13.32;;;7.20;;
72674;SDS011;60752;53.962;9.614;2022-11-15T16:41:48;14.83;;;7.80;;
72674;SDS011;60752;53.962;9.614;2022-11-15T16:46:48;15.93;;;7.10;;
72674;SDS011;60752;53.962;9.614;2022-11-15T16:51:48;17.30;;;7.27;;
72674;SDS011;60752;53.962;9.614;2022-11-15T16:56:50;14.07;;;7.30;;
72674;SDS011;60752;53.962;9.614;2022-11-15T17:01:51;13.60;;;7.07;;
72674;SDS011;60752;53.962;9.614;2022-11-15T17:06:51;14.93;;;7.27;;
72674;SDS011;60752;53.962;9.614;2022-11-15T17:11:53;12.63;;;7.17;;
72674;SDS011;60752;53.962;9.614;2022-11-15T17:16:53;14.93;;;7.50;;
72674;SDS011;60752;53.962;9.614;2022-11-15T17:21:54;16.20;;;7.40;;
72674;SDS011;60752;53.962;9.614;2022-11-15T17:26:55;13.57;;;7.40;;
72674;SDS011;60752;53.962;9.614;2022-11-15T17:31:56;15.00;;;7.60;;
72674;SDS011;60752;53.962;9.614;2022-11-15T17:36:56;14.13;;;6.93;;
72674;SDS011;60752;53.962;9.614;2022-11-15T17:41:58;14.47;;;7.33;;
72674;SDS011;60752;53.962;9.614;2022-11-15T17:46:58;21.02;;;7.70;;
72674;SDS011;60752;53.962;9.614;2022-11-15T17:51:59;18.37;;;7.80;;
72674;SDS011;60752;53.962;9.614;2022-11-15T17:57:01;12.87;;;6.43;;
72674;SDS011;60752;53.962;9.614;2022-11-15T18:02:01;13.70;;;6.83;;
72674;SDS011;60752;53.962;9.614;2022-11-15T18:07:01;14.50;;;7.03;;
72674;SDS011;60752;53.962;9.614;2022-11-15T18:12:03;15.13;;;7.37;;
72674;SDS011;60752;53.962;9.614;2022-11-15T18:17:04;13.32;;;6.95;;
72674;SDS011;60752;53.962;9.614;2022-11-15T18:22:04;15.93;;;8.37;;
72674;SDS011;60752;53.962;9.614;2022-11-15T18:27:06;16.30;;;7.77;;
72674;SDS011;60752;53.962;9.614;2022-11-15T18:32:06;17.08;;;8.25;;
72674;SDS011;60752;53.962;9.614;2022-11-15T18:37:07;13.73;;;6.83;;
72674;SDS011;60752;53.962;9.614;2022-11-15T18:42:09;16.93;;;7.43;;
72674;SDS011;60752;53.962;9.614;2022-11-15T18:47:09;15.05;;;7.53;;
72674;SDS011;60752;53.962;9.614;2022-11-15T18:52:09;14.50;;;6.77;;
72674;SDS011;60752;53.962;9.614;2022-11-15T18:57:11;15.50;;;7.37;;
72674;SDS011;60752;53.962;9.614;2022-11-15T19:02:12;19.08;;;9.43;;
72674;SDS011;60752;53.962;9.614;2022-11-15T19:07:12;16.00;;;8.67;;
72674;SDS011;60752;53.962;9.614;2022-11-15T19:12:14;18.33;;;9.03;;
72674;SDS011;60752;53.962;9.614;2022-11-15T19:17:14;16.05;;;8.90;;
72674;SDS011;60752;53.962;9.614;2022-11-15T19:22:15;15.20;;;7.40;;
72674;SDS011;60752;53.962;9.614;2022-11-15T19:27:16;13.20;;;6.97;;
72674;SDS011;60752;53.962;9.614;2022-11-15T19:32:17;14.83;;;7.40;;
72674;SDS011;60752;53.962;9.614;2022-11-15T19:37:17;18.97;;;7.50;;
72674;SDS011;60752;53.962;9.614;2022-11-15T19:42:19;14.50;;;7.37;;
72674;SDS011;60752;53.962;9.614;2022-11-15T19:47:19;13.75;;;7.45;;
72674;SDS011;60752;53.962;9.614;2022-11-15T19:52:20;17.20;;;8.20;;
72674;SDS011;60752;53.962;9.614;2022-11-15T19:57:21;19.33;;;8.10;;
72674;SDS011;60752;53.962;9.614;2022-11-15T20:02:22;16.85;;;7.80;;
72674;SDS011;60752;53.962;9.614;2022-11-15T20:07:22;18.00;;;7.97;;
72674;SDS011;60752;53.962;9.614;2022-11-15T20:12:24;18.27;;;8.30;;
72674;SDS011;60752;53.962;9.614;2022-11-15T20:17:24;19.77;;;9.23;;
72674;SDS011;60752;53.962;9.614;2022-11-15T20:22:25;17.57;;;8.63;;
72674;SDS011;60752;53.962;9.614;2022-11-15T20:27:27;17.03;;;9.03;;
72674;SDS011;60752;53.962;9.614;2022-11-15T20:32:27;18.67;;;8.55;;
72674;SDS011;60752;53.962;9.614;2022-11-15T20:37:29;19.38;;;9.10;;
72674;SDS011;60752;53.962;9.614;2022-11-15T20:42:31;18.97;;;8.87;;
72674;SDS011;60752;53.962;9.614;2022-11-15T20:47:31;20.70;;;8.87;;
72674;SDS011;60752;53.962;9.614;2022-11-15T20:52:32;18.57;;;8.57;;
72674;SDS011;60752;53.962;9.614;2022-11-15T20:57:34;21.17;;;9.47;;
72674;SDS011;60752;53.962;9.614;2022-11-15T21:02:34;19.23;;;9.05;;
72674;SDS011;60752;53.962;9.614;2022-11-15T21:07:35;19.13;;;9.23;;
72674;SDS011;60752;53.962;9.614;2022-11-15T21:12:37;20.13;;;10.20;;
72674;SDS011;60752;53.962;9.614;2022-11-15T21:17:37;20.17;;;9.27;;
72674;SDS011;60752;53.962;9.614;2022-11-15T21:22:37;19.60;;;9.50;;
72674;SDS011;60752;53.962;9.614;2022-11-15T21:27:39;22.43;;;10.70;;
72674;SDS011;60752;53.962;9.614;2022-11-15T21:32:39;25.43;;;9.93;;
72674;SDS011;60752;53.962;9.614;2022-11-15T21:37:40;19.07;;;9.50;;
72674;SDS011;60752;53.962;9.614;2022-11-15T21:42:42;20.13;;;9.73;;
72674;SDS011;60752;53.962;9.614;2022-11-15T21:47:42;23.40;;;9.68;;
72674;SDS011;60752;53.962;9.614;2022-11-15T21:52:42;19.40;;;9.67;;
72674;SDS011;60752;53.962;9.614;2022-11-15T21:57:44;25.63;;;11.43;;
72674;SDS011;60752;53.962;9.614;2022-11-15T22:02:44;24.08;;;10.15;;
72674;SDS011;60752;53.962;9.614;2022-11-15T22:07:45;22.33;;;11.40;;
72674;SDS011;60752;53.962;9.614;2022-11-15T22:12:47;20.63;;;9.27;;
72674;SDS011;60752;53.962;9.614;2022-11-15T22:17:47;23.80;;;10.15;;
72674;SDS011;60752;53.962;9.614;2022-11-15T22:22:47;22.13;;;10.00;;
72674;SDS011;60752;53.962;9.614;2022-11-15T22:27:49;20.87;;;10.53;;
72674;SDS011;60752;53.962;9.614;2022-11-15T22:32:50;22.30;;;10.23;;
72674;SDS011;60752;53.962;9.614;2022-11-15T22:37:50;19.70;;;10.10;;
72674;SDS011;60752;53.962;9.614;2022-11-15T22:42:52;22.43;;;10.67;;
72674;SDS011;60752;53.962;9.614;2022-11-15T22:47:53;18.93;;;9.57;;
72674;SDS011;60752;53.962;9.614;2022-11-15T22:52:53;20.10;;;9.40;;
72674;SDS011;60752;53.962;9.614;2022-11-15T22:57:55;22.40;;;10.87;;
72674;SDS011;60752;53.962;9.614;2022-11-15T23:02:55;23.33;;;10.73;;
72674;SDS011;60752;53.962;9.614;2022-11-15T23:07:56;23.93;;;11.20;;
72674;SDS011;60752;53.962;9.614;2022-11-15T23:13:02;22.47;;;9.67;;
72674;SDS011;60752;53.962;9.614;2022-11-15T23:18:03;26.13;;;12.03;;
72674;SDS011;60752;53.962;9.614;2022-11-15T23:23:04;24.52;;;11.20;;
72674;SDS011;60752;53.962;9.614;2022-11-15T23:28:05;25.70;;;11.80;;
72674;SDS011;60752;53.962;9.614;2022-11-15T23:33:11;24.50;;;10.37;;
72674;SDS011;60752;53.962;9.614;2022-11-15T23:38:15;24.48;;;11.93;;
72674;SDS011;60752;53.962;9.614;2022-11-15T23:43:17;22.30;;;10.83;;
72674;SDS011;60752;53.962;9.614;2022-11-15T23:48:17;26.98;;;11.65;;
72674;SDS011;60752;53.962;9.614;2022-11-15T23:53:18;23.70;;;11.13;;
72674;SDS011;60752;53.962;9.614;2022-11-15T23:58:20;21.77;;;11.07;;
